Time;durP1;ratioP1;P1;durP2;ratioP2;P2;SDS_P1;SDS_P2;PMS_P1;PMS_P2;Temp;Humidity;BMP_temperature;BMP_pressure;BME280_temperature;BME280_humidity;BME280_pressure;Samples;Min_cycle;Max_cycle;Signal;HPM_P1;HPM_P2
2023/10/18 00:00:55;;;;;;;3.42;3.22;;;;;;;;;;5034821;28;20485;-65
2023/10/18 00:03:22;;;;;;;4.50;3.92;;;;;;;;;;5032648;28;20196;-67
2023/10/18 00:05:49;;;;;;;4.90;4.50;;;;;;;;;;5030282;28;20195;-63
2023/10/18 00:08:17;;;;;;;6.60;3.90;;;;;;;;;;5035063;28;20206;-66
2023/10/18 00:10:43;;;;;;;5.70;3.88;;;;;;;;;;5033238;28;20265;-65
2023/10/18 00:13:11;;;;;;;4.65;4.00;;;;;;;;;;5034364;28;20212;-65
2023/10/18 00:15:38;;;;;;;4.03;3.72;;;;;;;;;;5031560;28;20211;-67
2023/10/18 00:18:05;;;;;;;7.32;3.83;;;;;;;;;;5034188;28;20195;-65
2023/10/18 00:20:31;;;;;;;5.00;3.72;;;;;;;;;;5030234;28;20234;-65
2023/10/18 00:22:58;;;;;;;4.40;4.00;;;;;;;;;;5033433;28;20228;-67
2023/10/18 00:25:24;;;;;;;4.28;3.88;;;;;;;;;;5029375;28;20195;-65
2023/10/18 00:27:55;;;;;;;3.95;3.75;;;;;;;;;;5036992;28;20203;-66
2023/10/18 00:30:21;;;;;;;6.03;4.15;;;;;;;;;;5034869;28;20621;-66
2023/10/18 00:32:48;;;;;;;4.13;3.90;;;;;;;;;;5036981;28;20669;-65
2023/10/18 00:35:18;;;;;;;4.43;4.13;;;;;;;;;;5036182;28;20676;-67
2023/10/18 00:37:45;;;;;;;4.20;3.88;;;;;;;;;;5034186;28;20667;-67
2023/10/18 00:40:20;;;;;;;6.60;5.15;;;;;;;;;;5035367;28;20199;-67
2023/10/18 00:42:47;;;;;;;4.18;3.88;;;;;;;;;;5036342;28;20206;-65
2023/10/18 00:45:15;;;;;;;4.07;3.83;;;;;;;;;;5037831;28;20227;-68
2023/10/18 00:47:41;;;;;;;3.75;3.45;;;;;;;;;;5036133;28;20203;-65
2023/10/18 00:50:14;;;;;;;4.95;3.83;;;;;;;;;;5036566;28;20263;-68
2023/10/18 00:52:40;;;;;;;5.10;4.60;;;;;;;;;;5036878;28;20211;-65
2023/10/18 00:55:09;;;;;;;7.18;3.60;;;;;;;;;;5038991;28;20211;-65
2023/10/18 00:57:36;;;;;;;4.25;3.85;;;;;;;;;;5039435;28;20775;-65
2023/10/18 01:00:06;;;;;;;3.97;3.67;;;;;;;;;;5034916;28;20196;-64
2023/10/18 01:02:39;;;;;;;4.35;4.07;;;;;;;;;;5036284;28;20203;-65
2023/10/18 01:05:09;;;;;;;4.30;4.00;;;;;;;;;;5034572;28;20203;-65
2023/10/18 01:07:36;;;;;;;5.03;4.72;;;;;;;;;;5035128;28;20672;-65
2023/10/18 01:10:07;;;;;;;6.32;4.63;;;;;;;;;;5036151;28;20289;-66
2023/10/18 01:12:34;;;;;;;4.82;4.50;;;;;;;;;;5036215;28;20199;-64
2023/10/18 01:15:00;;;;;;;6.80;5.70;;;;;;;;;;5034409;28;20269;-66
2023/10/18 01:17:27;;;;;;;6.32;5.85;;;;;;;;;;5038080;28;20281;-67
2023/10/18 01:19:55;;;;;;;8.18;7.47;;;;;;;;;;5034461;28;20651;-67
2023/10/18 01:22:21;;;;;;;6.85;6.25;;;;;;;;;;5039947;28;20195;-66
2023/10/18 01:24:50;;;;;;;7.93;6.75;;;;;;;;;;5035959;28;20199;-65
2023/10/18 01:27:18;;;;;;;7.35;6.75;;;;;;;;;;5033215;28;20280;-65
2023/10/18 01:29:46;;;;;;;8.23;6.65;;;;;;;;;;5036186;28;20216;-67
2023/10/18 01:32:13;;;;;;;7.72;6.85;;;;;;;;;;5037191;28;20223;-67
2023/10/18 01:34:40;;;;;;;8.60;7.80;;;;;;;;;;5036653;28;20289;-66
2023/10/18 01:37:10;;;;;;;8.98;7.80;;;;;;;;;;5032337;28;20229;-66
2023/10/18 01:39:37;;;;;;;8.68;7.60;;;;;;;;;;5032785;28;20296;-65
2023/10/18 01:42:06;;;;;;;10.13;7.53;;;;;;;;;;5036442;28;20234;-66
2023/10/18 01:44:33;;;;;;;9.00;8.00;;;;;;;;;;5036265;28;20217;-66
2023/10/18 01:47:05;;;;;;;8.88;7.70;;;;;;;;;;5035733;28;20226;-66
2023/10/18 01:49:31;;;;;;;9.27;8.40;;;;;;;;;;5040679;28;20203;-67
2023/10/18 01:51:59;;;;;;;10.45;7.53;;;;;;;;;;5041574;28;20204;-67
2023/10/18 01:54:26;;;;;;;9.95;8.60;;;;;;;;;;5036102;28;20210;-66
2023/10/18 01:56:57;;;;;;;10.73;8.07;;;;;;;;;;5038631;28;20224;-66
2023/10/18 01:59:27;;;;;;;10.15;8.65;;;;;;;;;;5036643;28;20314;-65
2023/10/18 02:01:54;;;;;;;10.98;7.97;;;;;;;;;;5034364;28;20212;-65
2023/10/18 02:04:25;;;;;;;10.65;8.13;;;;;;;;;;5035278;28;20196;-61
2023/10/18 02:06:51;;;;;;;9.20;8.32;;;;;;;;;;5032296;28;20199;-65
2023/10/18 02:09:19;;;;;;;12.13;8.05;;;;;;;;;;5035279;28;20644;-66
2023/10/18 02:11:46;;;;;;;9.38;8.45;;;;;;;;;;5034928;28;20286;-66
2023/10/18 02:14:13;;;;;;;10.23;8.93;;;;;;;;;;5037424;28;21040;-65
2023/10/18 02:16:45;;;;;;;8.23;6.65;;;;;;;;;;5032547;28;20616;-63
2023/10/18 02:19:13;;;;;;;7.07;6.22;;;;;;;;;;5033840;28;20217;-66
2023/10/18 02:21:40;;;;;;;6.85;5.95;;;;;;;;;;5032837;28;20688;-63
2023/10/18 02:24:11;;;;;;;7.22;6.63;;;;;;;;;;5034006;28;20330;-67
2023/10/18 02:26:40;;;;;;;8.63;5.80;;;;;;;;;;5035743;28;20308;-66
2023/10/18 02:29:12;;;;;;;6.38;5.53;;;;;;;;;;5033207;28;20286;-66
2023/10/18 02:31:39;;;;;;;6.20;5.63;;;;;;;;;;5037631;28;20233;-66
2023/10/18 02:34:08;;;;;;;7.88;6.13;;;;;;;;;;5040870;28;20210;-64
2023/10/18 02:36:38;;;;;;;6.40;5.80;;;;;;;;;;5037606;28;20223;-65
2023/10/18 02:39:06;;;;;;;5.75;5.13;;;;;;;;;;5035445;28;20561;-64
2023/10/18 02:41:34;;;;;;;5.65;5.25;;;;;;;;;;5034994;28;20199;-69
2023/10/18 02:44:01;;;;;;;6.40;5.53;;;;;;;;;;5038214;28;20204;-66
2023/10/18 02:46:27;;;;;;;6.07;5.57;;;;;;;;;;5035122;28;20204;-65
2023/10/18 02:48:54;;;;;;;10.18;5.95;;;;;;;;;;5034908;28;20701;-66
2023/10/18 02:51:23;;;;;;;6.28;5.28;;;;;;;;;;5037992;28;20202;-66
2023/10/18 02:53:51;;;;;;;8.55;6.68;;;;;;;;;;5035714;28;20214;-65
2023/10/18 02:56:20;;;;;;;6.55;5.95;;;;;;;;;;5036086;28;20587;-65
2023/10/18 02:58:47;;;;;;;6.90;6.10;;;;;;;;;;5035272;28;20262;-67
2023/10/18 03:01:14;;;;;;;7.28;6.13;;;;;;;;;;5042298;28;20206;-66
2023/10/18 03:03:46;;;;;;;8.07;6.80;;;;;;;;;;5027375;28;21437;-66
2023/10/18 03:06:14;;;;;;;11.63;7.32;;;;;;;;;;5039130;28;20227;-67
2023/10/18 03:08:44;;;;;;;7.40;6.65;;;;;;;;;;5042927;28;20260;-67
2023/10/18 03:11:11;;;;;;;6.18;5.68;;;;;;;;;;5042249;28;20230;-66
2023/10/18 03:13:37;;;;;;;7.60;7.00;;;;;;;;;;5041083;28;20234;-67
2023/10/18 03:16:15;;;;;;;8.50;7.63;;;;;;;;;;5042622;28;20199;-67
2023/10/18 03:18:44;;;;;;;8.23;7.38;;;;;;;;;;5043849;28;20219;-67
2023/10/18 03:21:13;;;;;;;8.13;7.43;;;;;;;;;;5044607;28;20569;-67
2023/10/18 03:23:45;;;;;;;9.27;7.18;;;;;;;;;;5043667;28;20207;-67
2023/10/18 03:26:12;;;;;;;7.93;7.22;;;;;;;;;;5045822;28;20282;-66
2023/10/18 03:28:48;;;;;;;8.05;6.88;;;;;;;;;;5043548;28;20196;-67
2023/10/18 03:31:27;;;;;;;8.07;7.28;;;;;;;;;;5044621;28;20272;-67
2023/10/18 03:33:59;;;;;;;9.68;7.72;;;;;;;;;;5043366;28;20647;-67
2023/10/18 03:36:26;;;;;;;9.68;8.02;;;;;;;;;;5041751;28;20199;-67
2023/10/18 03:38:54;;;;;;;8.05;7.15;;;;;;;;;;5043412;28;20291;-66
2023/10/18 03:41:25;;;;;;;11.35;8.93;;;;;;;;;;5042920;28;20242;-67
2023/10/18 03:43:58;;;;;;;10.23;7.55;;;;;;;;;;5042589;28;20677;-67
2023/10/18 03:46:29;;;;;;;8.90;7.55;;;;;;;;;;5042818;28;20199;-66
2023/10/18 03:49:01;;;;;;;7.93;7.07;;;;;;;;;;5044379;28;20672;-67
2023/10/18 03:51:30;;;;;;;6.45;5.90;;;;;;;;;;5042610;28;20238;-65
2023/10/18 03:53:56;;;;;;;8.98;7.45;;;;;;;;;;5044508;28;20241;-69
2023/10/18 03:56:25;;;;;;;8.10;7.50;;;;;;;;;;5043190;28;20214;-67
2023/10/18 03:59:00;;;;;;;7.38;6.38;;;;;;;;;;5043846;28;20250;-66
2023/10/18 04:01:27;;;;;;;8.63;7.03;;;;;;;;;;5042312;28;20300;-66
2023/10/18 04:03:56;;;;;;;7.40;6.53;;;;;;;;;;5042410;28;20213;-66
2023/10/18 04:06:23;;;;;;;6.88;6.38;;;;;;;;;;5041966;28;20209;-67
2023/10/18 04:08:50;;;;;;;7.40;6.20;;;;;;;;;;5043475;28;20211;-67
2023/10/18 04:11:24;;;;;;;7.25;6.75;;;;;;;;;;5041398;28;20720;-62
2023/10/18 04:13:53;;;;;;;6.70;6.07;;;;;;;;;;5044340;28;20601;-67
2023/10/18 04:16:26;;;;;;;7.47;6.88;;;;;;;;;;5041339;28;20289;-67
2023/10/18 04:18:52;;;;;;;7.15;6.53;;;;;;;;;;5043733;28;20219;-62
2023/10/18 04:21:25;;;;;;;6.00;5.60;;;;;;;;;;5044746;28;20257;-66
2023/10/18 04:23:54;;;;;;;8.55;6.63;;;;;;;;;;5042899;28;20204;-69
2023/10/18 04:26:21;;;;;;;6.88;6.25;;;;;;;;;;5044029;28;20211;-67
2023/10/18 04:28:48;;;;;;;6.00;5.50;;;;;;;;;;5042990;28;20206;-68
2023/10/18 04:31:21;;;;;;;6.30;5.90;;;;;;;;;;5041982;28;20223;-67
2023/10/18 04:33:50;;;;;;;6.88;6.10;;;;;;;;;;5040149;28;20203;-66
2023/10/18 04:36:20;;;;;;;6.60;6.00;;;;;;;;;;5041304;28;20637;-65
2023/10/18 04:38:47;;;;;;;9.27;5.78;;;;;;;;;;5040250;28;20223;-66
2023/10/18 04:41:23;;;;;;;6.03;5.68;;;;;;;;;;5043400;28;20638;-69
2023/10/18 04:43:50;;;;;;;6.93;6.40;;;;;;;;;;5042570;28;20210;-68
2023/10/18 04:46:25;;;;;;;6.80;6.30;;;;;;;;;;5039919;28;20210;-67
2023/10/18 04:49:16;;;;;;;5.97;5.38;;;;;;;;;;5044232;28;20206;-70
2023/10/18 04:51:44;;;;;;;6.80;6.03;;;;;;;;;;5042648;28;20203;-69
2023/10/18 04:54:15;;;;;;;6.22;5.60;;;;;;;;;;5042512;28;20226;-68
2023/10/18 04:56:44;;;;;;;6.68;6.15;;;;;;;;;;5040328;28;20226;-69
2023/10/18 04:59:11;;;;;;;7.05;6.32;;;;;;;;;;5042603;28;20215;-67
2023/10/18 05:01:56;;;;;;;9.52;5.90;;;;;;;;;;5043806;28;20195;-65
2023/10/18 05:04:24;;;;;;;6.20;5.75;;;;;;;;;;5043454;28;20219;-65
2023/10/18 05:06:54;;;;;;;9.80;5.90;;;;;;;;;;5043049;28;20207;-69
2023/10/18 05:09:29;;;;;;;6.53;5.93;;;;;;;;;;5040727;28;20601;-68
2023/10/18 05:11:56;;;;;;;8.77;6.50;;;;;;;;;;5043289;28;20308;-68
2023/10/18 05:14:35;;;;;;;7.40;6.80;;;;;;;;;;5039891;28;20242;-63
2023/10/18 05:17:10;;;;;;;6.50;5.97;;;;;;;;;;5047002;28;20194;-65
2023/10/18 05:19:37;;;;;;;6.82;6.18;;;;;;;;;;5045638;28;20217;-69
2023/10/18 05:22:05;;;;;;;6.70;5.97;;;;;;;;;;5046043;28;20210;-67
2023/10/18 05:24:36;;;;;;;5.57;5.18;;;;;;;;;;5045072;28;20231;-66
2023/10/18 05:27:05;;;;;;;6.53;5.95;;;;;;;;;;5043221;28;20766;-68
2023/10/18 05:29:39;;;;;;;6.18;5.68;;;;;;;;;;5047166;28;20583;-66
2023/10/18 05:32:13;;;;;;;6.18;5.78;;;;;;;;;;5045634;28;20234;-66
2023/10/18 05:34:50;;;;;;;6.93;6.30;;;;;;;;;;5045221;28;20207;-65
2023/10/18 05:37:19;;;;;;;5.93;5.53;;;;;;;;;;5047180;28;20297;-68
2023/10/18 05:40:42;;;;;;;5.35;4.97;;;;;;;;;;5046567;28;20207;-66
2023/10/18 05:42:46;;;;;;;5.90;5.07;;;;;;;;;;5046716;28;20203;-66
2023/10/18 05:45:12;;;;;;;7.25;5.55;;;;;;;;;;5042851;28;20203;-67
2023/10/18 05:47:42;;;;;;;5.93;5.07;;;;;;;;;;5043333;28;20261;-69
2023/10/18 05:50:12;;;;;;;5.40;5.10;;;;;;;;;;5045373;28;20199;-69
2023/10/18 05:52:39;;;;;;;7.60;5.60;;;;;;;;;;5046120;28;20207;-68
2023/10/18 05:55:08;;;;;;;7.05;5.88;;;;;;;;;;5046357;28;20199;-68
2023/10/18 05:57:35;;;;;;;6.55;5.90;;;;;;;;;;5045944;28;20245;-68
2023/10/18 06:00:02;;;;;;;7.60;5.20;;;;;;;;;;5043863;28;20749;-65
2023/10/18 06:02:30;;;;;;;5.68;5.18;;;;;;;;;;5044646;28;20199;-67
2023/10/18 06:04:58;;;;;;;6.57;5.40;;;;;;;;;;5045480;28;20290;-67
2023/10/18 06:07:26;;;;;;;5.90;4.78;;;;;;;;;;5045738;28;20206;-69
2023/10/18 06:10:09;;;;;;;5.72;5.22;;;;;;;;;;5045270;28;20235;-68
2023/10/18 06:12:40;;;;;;;6.15;5.05;;;;;;;;;;5045610;28;20210;-67
2023/10/18 06:15:11;;;;;;;6.78;6.18;;;;;;;;;;5045302;28;20211;-67
2023/10/18 06:17:46;;;;;;;7.60;5.50;;;;;;;;;;5042675;28;20276;-64
2023/10/18 06:20:25;;;;;;;7.30;5.43;;;;;;;;;;5044363;28;20202;-70
2023/10/18 06:23:07;;;;;;;7.13;5.35;;;;;;;;;;5042236;28;20684;-70
2023/10/18 06:25:35;;;;;;;5.32;4.68;;;;;;;;;;5043546;28;20226;-69
2023/10/18 06:28:01;;;;;;;5.97;5.00;;;;;;;;;;5046124;28;20282;-62
2023/10/18 06:30:31;;;;;;;5.32;5.00;;;;;;;;;;5042261;28;20662;-69
2023/10/18 06:32:57;;;;;;;5.90;5.40;;;;;;;;;;5046297;28;20939;-68
2023/10/18 06:35:27;;;;;;;5.32;4.95;;;;;;;;;;5045519;28;20297;-68
2023/10/18 06:37:54;;;;;;;6.38;4.32;;;;;;;;;;5044397;28;20237;-69
2023/10/18 06:40:40;;;;;;;6.20;4.35;;;;;;;;;;5042705;28;20217;-69
2023/10/18 06:43:08;;;;;;;4.80;4.32;;;;;;;;;;5045238;28;20720;-67
2023/10/18 06:45:37;;;;;;;4.75;4.45;;;;;;;;;;5045351;28;20210;-67
2023/10/18 06:48:04;;;;;;;6.07;5.57;;;;;;;;;;5044613;28;20191;-65
2023/10/18 06:50:32;;;;;;;8.15;7.55;;;;;;;;;;5045022;28;20282;-65
2023/10/18 06:52:59;;;;;;;5.93;5.53;;;;;;;;;;5044824;28;20195;-66
2023/10/18 06:55:35;;;;;;;5.78;5.28;;;;;;;;;;5044445;28;20203;-67
2023/10/18 06:58:11;;;;;;;4.97;4.57;;;;;;;;;;5044206;28;20214;-67
2023/10/18 07:00:43;;;;;;;5.55;5.15;;;;;;;;;;5043645;28;20218;-62
2023/10/18 07:03:16;;;;;;;5.43;4.55;;;;;;;;;;5043571;28;20211;-67
2023/10/18 07:05:46;;;;;;;5.40;5.00;;;;;;;;;;5043606;28;20214;-68
2023/10/18 07:08:19;;;;;;;8.23;5.15;;;;;;;;;;5041924;28;20294;-69
2023/10/18 07:10:54;;;;;;;6.35;5.75;;;;;;;;;;5044250;28;20245;-63
2023/10/18 07:13:32;;;;;;;6.13;5.63;;;;;;;;;;5045185;28;20204;-67
2023/10/18 07:16:00;;;;;;;6.85;6.28;;;;;;;;;;5045758;28;20209;-71
2023/10/18 07:18:27;;;;;;;5.38;4.88;;;;;;;;;;5044308;28;20226;-68
2023/10/18 07:20:59;;;;;;;9.48;7.82;;;;;;;;;;5043194;28;20669;-66
2023/10/18 07:23:26;;;;;;;5.60;5.20;;;;;;;;;;5044481;28;20196;-68
2023/10/18 07:25:55;;;;;;;5.53;5.13;;;;;;;;;;5045337;28;20210;-68
2023/10/18 07:28:22;;;;;;;6.00;5.50;;;;;;;;;;5042212;28;20203;-68
2023/10/18 07:30:49;;;;;;;8.63;5.00;;;;;;;;;;5044014;28;20223;-69
2023/10/18 07:33:16;;;;;;;6.15;4.95;;;;;;;;;;5045014;28;20203;-69
2023/10/18 07:35:44;;;;;;;5.13;4.75;;;;;;;;;;5044062;28;20227;-69
2023/10/18 07:38:12;;;;;;;5.47;4.50;;;;;;;;;;5043623;28;20223;-71
2023/10/18 07:40:41;;;;;;;5.93;4.80;;;;;;;;;;5042276;28;20230;-66
2023/10/18 07:43:12;;;;;;;4.68;4.38;;;;;;;;;;5042354;28;20297;-68
2023/10/18 07:45:39;;;;;;;4.35;4.05;;;;;;;;;;5043033;28;20199;-66
2023/10/18 07:48:06;;;;;;;5.13;4.70;;;;;;;;;;5043939;28;20248;-66
2023/10/18 07:50:49;;;;;;;6.55;4.78;;;;;;;;;;5044455;28;20280;-66
2023/10/18 07:53:20;;;;;;;8.82;4.40;;;;;;;;;;5044549;28;20211;-69
2023/10/18 07:55:48;;;;;;;4.57;4.28;;;;;;;;;;5042714;28;20203;-68
2023/10/18 07:58:23;;;;;;;5.75;5.03;;;;;;;;;;5043773;28;20314;-68
2023/10/18 08:03:33;;;;;;;5.07;4.68;;;;;;;;;;5041671;28;20195;-69
2023/10/18 08:06:06;;;;;;;9.32;8.13;;;;;;;;;;5044050;28;20222;-68
2023/10/18 08:08:36;;;;;;;23.35;5.25;;;;;;;;;;5042924;28;20203;-63
2023/10/18 08:11:05;;;;;;;5.47;5.07;;;;;;;;;;5043382;28;20618;-69
2023/10/18 08:13:32;;;;;;;4.18;3.88;;;;;;;;;;5043835;28;20195;-65
2023/10/18 08:16:01;;;;;;;5.65;4.15;;;;;;;;;;5043152;28;20211;-69
2023/10/18 08:18:39;;;;;;;5.03;4.63;;;;;;;;;;5043534;28;20787;-69
2023/10/18 08:21:07;;;;;;;4.72;4.43;;;;;;;;;;5042293;28;20692;-68
2023/10/18 08:23:38;;;;;;;4.13;3.83;;;;;;;;;;5042992;28;20194;-63
2023/10/18 08:26:04;;;;;;;4.07;3.78;;;;;;;;;;5042681;28;20608;-66
2023/10/18 08:28:38;;;;;;;4.10;3.80;;;;;;;;;;5044953;28;20710;-66
2023/10/18 08:31:10;;;;;;;7.15;4.35;;;;;;;;;;5043870;28;20220;-64
2023/10/18 08:33:36;;;;;;;5.03;4.47;;;;;;;;;;5042288;28;20648;-65
2023/10/18 08:36:08;;;;;;;4.78;4.38;;;;;;;;;;5044392;28;20202;-64
2023/10/18 08:38:36;;;;;;;4.55;4.22;;;;;;;;;;5042963;28;20237;-71
2023/10/18 08:41:13;;;;;;;4.90;4.50;;;;;;;;;;5043058;28;20219;-68
2023/10/18 08:43:44;;;;;;;6.30;4.50;;;;;;;;;;5040878;28;20210;-69
2023/10/18 08:46:11;;;;;;;4.80;4.40;;;;;;;;;;5042292;28;20227;-69
2023/10/18 08:48:40;;;;;;;5.22;4.82;;;;;;;;;;5043615;28;20534;-68
2023/10/18 08:51:07;;;;;;;6.32;5.82;;;;;;;;;;5048079;28;20266;-68
2023/10/18 08:53:34;;;;;;;4.15;3.80;;;;;;;;;;5045302;28;20593;-67
2023/10/18 08:56:05;;;;;;;4.93;4.50;;;;;;;;;;5045035;28;20195;-69
2023/10/18 08:58:33;;;;;;;5.40;4.18;;;;;;;;;;5047337;28;20257;-68
2023/10/18 09:01:05;;;;;;;4.22;3.65;;;;;;;;;;5041881;28;20203;-65
2023/10/18 09:03:32;;;;;;;5.65;4.55;;;;;;;;;;5027253;28;20283;-66
2023/10/18 09:06:04;;;;;;;5.35;4.80;;;;;;;;;;5012379;28;20669;-64
2023/10/18 09:08:35;;;;;;;4.75;4.30;;;;;;;;;;5024650;28;20199;-66
2023/10/18 09:11:04;;;;;;;5.05;4.63;;;;;;;;;;5039340;28;20230;-67
2023/10/18 09:13:37;;;;;;;5.43;5.03;;;;;;;;;;5044328;28;20199;-69
2023/10/18 09:16:04;;;;;;;4.82;4.43;;;;;;;;;;5042273;28;20299;-68
2023/10/18 09:18:31;;;;;;;4.45;4.15;;;;;;;;;;5044415;28;20225;-68
2023/10/18 09:21:07;;;;;;;5.95;5.05;;;;;;;;;;5042294;28;20194;-68
2023/10/18 09:23:34;;;;;;;5.80;5.20;;;;;;;;;;5042604;28;20213;-66
2023/10/18 09:26:06;;;;;;;5.57;5.05;;;;;;;;;;5046022;28;20199;-69
2023/10/18 09:28:35;;;;;;;5.32;4.93;;;;;;;;;;5043708;28;20300;-69
2023/10/18 09:31:09;;;;;;;5.47;5.10;;;;;;;;;;5043613;28;20222;-67
2023/10/18 09:33:36;;;;;;;4.65;4.35;;;;;;;;;;5043336;28;20195;-67
2023/10/18 09:36:05;;;;;;;6.82;4.97;;;;;;;;;;5044931;28;20226;-68
2023/10/18 09:38:39;;;;;;;5.32;4.72;;;;;;;;;;5045308;28;20254;-67
2023/10/18 09:41:05;;;;;;;4.82;4.32;;;;;;;;;;5044640;28;20263;-67
2023/10/18 09:43:32;;;;;;;4.93;4.53;;;;;;;;;;5042135;28;20298;-68
2023/10/18 09:46:00;;;;;;;8.63;4.60;;;;;;;;;;5047208;28;20211;-66
2023/10/18 09:48:31;;;;;;;5.10;4.70;;;;;;;;;;5045220;28;20199;-68
2023/10/18 09:51:06;;;;;;;4.82;4.53;;;;;;;;;;5046039;28;20567;-67
2023/10/18 09:53:33;;;;;;;5.85;5.18;;;;;;;;;;5043504;28;20743;-69
2023/10/18 09:56:02;;;;;;;5.30;4.90;;;;;;;;;;5046948;28;20203;-64
2023/10/18 09:58:29;;;;;;;5.65;5.15;;;;;;;;;;5045588;28;20199;-68
2023/10/18 10:01:01;;;;;;;4.97;4.43;;;;;;;;;;5043716;28;20668;-69
2023/10/18 10:03:35;;;;;;;6.20;5.60;;;;;;;;;;5043543;28;20203;-68
2023/10/18 10:06:01;;;;;;;5.30;4.90;;;;;;;;;;5042388;28;20199;-69
2023/10/18 10:08:31;;;;;;;6.25;5.03;;;;;;;;;;5046088;28;20203;-68
2023/10/18 10:11:12;;;;;;;6.10;5.65;;;;;;;;;;5045307;28;20262;-69
2023/10/18 10:13:38;;;;;;;5.07;4.72;;;;;;;;;;5044967;28;20223;-69
2023/10/18 10:16:08;;;;;;;6.18;5.57;;;;;;;;;;5045489;28;20231;-67
2023/10/18 10:18:39;;;;;;;5.82;5.28;;;;;;;;;;5044238;28;20214;-65
2023/10/18 10:21:08;;;;;;;5.22;4.82;;;;;;;;;;5043697;28;20216;-67
2023/10/18 10:23:35;;;;;;;5.43;4.70;;;;;;;;;;5044368;28;20211;-70
2023/10/18 10:26:10;;;;;;;5.22;4.70;;;;;;;;;;5045650;28;20209;-68
2023/10/18 10:31:50;;;;;;;5.35;4.38;;;;;;;;;;5043502;28;20250;-68
2023/10/18 10:34:24;;;;;;;5.07;4.55;;;;;;;;;;5043933;28;20364;-68
2023/10/18 10:36:51;;;;;;;5.03;4.72;;;;;;;;;;5044679;28;20207;-67
2023/10/18 10:39:23;;;;;;;5.07;4.72;;;;;;;;;;5043364;28;20223;-69
2023/10/18 10:41:50;;;;;;;5.80;5.40;;;;;;;;;;5042807;28;20203;-68
2023/10/18 10:44:23;;;;;;;5.82;5.32;;;;;;;;;;5044383;28;20286;-68
2023/10/18 10:46:50;;;;;;;5.53;4.97;;;;;;;;;;5043660;28;20261;-69
2023/10/18 10:49:41;;;;;;;6.30;5.05;;;;;;;;;;5045231;28;20199;-68
2023/10/18 10:52:18;;;;;;;5.72;4.78;;;;;;;;;;5041879;28;20413;-69
2023/10/18 10:54:47;;;;;;;5.28;4.88;;;;;;;;;;5044749;28;20199;-67
2023/10/18 10:57:15;;;;;;;4.97;4.57;;;;;;;;;;5045228;28;20256;-70
2023/10/18 10:59:50;;;;;;;4.90;4.50;;;;;;;;;;5044413;28;20254;-69
2023/10/18 11:02:24;;;;;;;6.60;4.85;;;;;;;;;;5044539;28;20199;-68
2023/10/18 11:04:50;;;;;;;6.40;4.72;;;;;;;;;;5043663;28;20207;-69
2023/10/18 11:07:22;;;;;;;6.07;5.03;;;;;;;;;;5042350;28;20203;-67
2023/10/18 11:09:50;;;;;;;4.85;4.35;;;;;;;;;;5041588;28;20637;-68
2023/10/18 11:12:17;;;;;;;4.50;4.20;;;;;;;;;;5041876;28;20573;-67
2023/10/18 11:14:44;;;;;;;7.97;7.18;;;;;;;;;;5045156;28;20206;-67
2023/10/18 11:17:18;;;;;;;5.05;4.68;;;;;;;;;;5041944;28;20268;-70
2023/10/18 11:19:51;;;;;;;5.78;4.13;;;;;;;;;;5044714;28;20215;-68
2023/10/18 11:22:20;;;;;;;5.47;4.97;;;;;;;;;;5040536;28;20290;-65
2023/10/18 11:24:49;;;;;;;5.43;5.03;;;;;;;;;;5041168;28;20207;-69
2023/10/18 11:27:17;;;;;;;4.50;4.20;;;;;;;;;;5043741;28;20293;-67
2023/10/18 11:29:43;;;;;;;4.85;4.55;;;;;;;;;;5043929;28;21335;-68
2023/10/18 11:32:15;;;;;;;6.28;5.32;;;;;;;;;;5044067;28;20288;-66
2023/10/18 11:34:43;;;;;;;5.55;5.03;;;;;;;;;;5043636;28;20215;-69
2023/10/18 11:37:13;;;;;;;5.18;4.78;;;;;;;;;;5039773;28;20206;-69
2023/10/18 11:39:41;;;;;;;4.97;4.53;;;;;;;;;;5043397;28;20227;-68
2023/10/18 11:42:10;;;;;;;5.47;5.18;;;;;;;;;;5041569;28;20215;-68
2023/10/18 11:44:39;;;;;;;5.57;5.10;;;;;;;;;;5043236;28;20210;-70
2023/10/18 11:47:11;;;;;;;5.28;4.78;;;;;;;;;;5042461;28;20207;-69
2023/10/18 11:49:38;;;;;;;9.65;5.47;;;;;;;;;;5041864;28;20631;-68
2023/10/18 11:52:05;;;;;;;7.60;5.15;;;;;;;;;;5042271;28;20651;-67
2023/10/18 11:54:32;;;;;;;6.35;5.35;;;;;;;;;;5042854;28;20198;-67
2023/10/18 11:57:01;;;;;;;6.40;5.47;;;;;;;;;;5043406;28;20210;-67
2023/10/18 11:59:29;;;;;;;5.95;5.35;;;;;;;;;;5041417;28;20222;-68
2023/10/18 12:01:56;;;;;;;5.32;4.93;;;;;;;;;;5042432;28;20226;-68
2023/10/18 12:04:28;;;;;;;5.50;5.00;;;;;;;;;;5043154;28;20604;-70
2023/10/18 12:06:56;;;;;;;4.68;4.38;;;;;;;;;;5042678;28;20199;-69
2023/10/18 12:09:30;;;;;;;6.35;4.75;;;;;;;;;;5042116;28;20574;-67
2023/10/18 12:11:56;;;;;;;5.35;4.57;;;;;;;;;;5042306;28;20342;-67
2023/10/18 12:14:24;;;;;;;6.43;5.22;;;;;;;;;;5038856;28;20203;-68
2023/10/18 12:16:52;;;;;;;8.15;5.00;;;;;;;;;;5043844;28;20697;-69
2023/10/18 12:19:19;;;;;;;6.75;4.72;;;;;;;;;;5041224;28;20260;-68
2023/10/18 12:21:48;;;;;;;5.97;5.47;;;;;;;;;;5042724;28;20203;-67
2023/10/18 12:24:15;;;;;;;5.95;5.35;;;;;;;;;;5043102;28;20230;-63
2023/10/18 12:26:44;;;;;;;5.85;5.30;;;;;;;;;;5042017;28;20284;-69
2023/10/18 12:29:15;;;;;;;7.20;5.63;;;;;;;;;;5042776;28;20203;-66
2023/10/18 12:31:51;;;;;;;5.90;5.40;;;;;;;;;;5041737;28;20219;-66
2023/10/18 12:34:21;;;;;;;6.55;6.00;;;;;;;;;;5042159;28;20223;-67
2023/10/18 12:36:49;;;;;;;6.68;6.05;;;;;;;;;;5042822;28;20203;-65
2023/10/18 12:39:20;;;;;;;12.35;5.68;;;;;;;;;;5041375;28;20280;-66
2023/10/18 12:41:52;;;;;;;7.93;5.75;;;;;;;;;;5038608;28;20729;-67
2023/10/18 12:44:19;;;;;;;5.57;5.07;;;;;;;;;;5040552;28;20213;-65
2023/10/18 12:46:50;;;;;;;5.75;5.25;;;;;;;;;;5042241;28;20265;-67
2023/10/18 12:49:22;;;;;;;5.60;5.13;;;;;;;;;;5043590;28;20286;-67
2023/10/18 12:51:57;;;;;;;5.88;5.40;;;;;;;;;;5040495;28;20198;-67
2023/10/18 12:54:29;;;;;;;5.82;5.43;;;;;;;;;;5043217;28;20210;-67
2023/10/18 12:56:57;;;;;;;5.97;5.45;;;;;;;;;;5041722;28;20213;-68
2023/10/18 12:59:23;;;;;;;5.63;5.13;;;;;;;;;;5041131;28;20203;-66
2023/10/18 13:01:58;;;;;;;5.95;5.50;;;;;;;;;;5040959;28;20738;-69
2023/10/18 13:04:23;;;;;;;6.13;5.70;;;;;;;;;;5039491;28;20281;-67
2023/10/18 13:06:50;;;;;;;5.40;5.05;;;;;;;;;;5042224;28;20290;-68
2023/10/18 13:09:19;;;;;;;5.38;4.88;;;;;;;;;;5041201;28;20196;-68
2023/10/18 13:11:47;;;;;;;6.22;5.40;;;;;;;;;;5040237;28;20231;-66
2023/10/18 13:14:14;;;;;;;6.78;5.10;;;;;;;;;;5037205;28;20748;-67
2023/10/18 13:16:41;;;;;;;5.60;5.20;;;;;;;;;;5042835;28;20578;-67
2023/10/18 13:19:09;;;;;;;5.57;5.07;;;;;;;;;;5042694;28;20257;-67
2023/10/18 13:21:39;;;;;;;6.78;6.15;;;;;;;;;;5041673;28;20237;-66
2023/10/18 13:24:16;;;;;;;7.20;6.60;;;;;;;;;;5040876;28;20289;-68
2023/10/18 13:26:43;;;;;;;5.30;4.80;;;;;;;;;;5043671;28;20203;-66
2023/10/18 13:29:15;;;;;;;9.70;5.68;;;;;;;;;;5041357;28;20195;-65
2023/10/18 13:31:44;;;;;;;7.18;6.57;;;;;;;;;;5041878;28;20238;-68
2023/10/18 13:34:18;;;;;;;8.50;5.18;;;;;;;;;;5042608;28;20302;-66
2023/10/18 13:36:45;;;;;;;7.05;5.65;;;;;;;;;;5043480;28;20530;-66
2023/10/18 13:39:12;;;;;;;7.50;6.78;;;;;;;;;;5044513;28;20199;-68
2023/10/18 13:41:39;;;;;;;7.38;5.85;;;;;;;;;;5042783;28;20313;-68
2023/10/18 13:44:08;;;;;;;5.72;5.30;;;;;;;;;;5044180;28;20211;-68
2023/10/18 13:46:34;;;;;;;6.50;5.90;;;;;;;;;;5043340;28;20203;-67
2023/10/18 13:49:03;;;;;;;8.15;7.47;;;;;;;;;;5043530;28;20200;-66
2023/10/18 13:51:34;;;;;;;7.43;6.72;;;;;;;;;;5042342;28;20699;-67
2023/10/18 13:54:01;;;;;;;7.28;6.68;;;;;;;;;;5043887;28;20198;-65
2023/10/18 13:56:29;;;;;;;7.53;6.93;;;;;;;;;;5044710;28;20203;-68
2023/10/18 13:58:55;;;;;;;9.68;6.90;;;;;;;;;;5042574;28;20226;-67
2023/10/18 14:01:24;;;;;;;8.23;7.53;;;;;;;;;;5044697;28;20226;-66
2023/10/18 14:03:51;;;;;;;7.97;7.25;;;;;;;;;;5043098;28;20260;-69
2023/10/18 14:06:18;;;;;;;8.52;7.93;;;;;;;;;;5043821;28;20199;-69
2023/10/18 14:08:47;;;;;;;14.68;8.23;;;;;;;;;;5043476;28;20632;-68
2023/10/18 14:11:14;;;;;;;9.68;8.77;;;;;;;;;;5043900;28;20631;-69
2023/10/18 14:13:41;;;;;;;8.68;7.57;;;;;;;;;;5042661;28;20203;-69
2023/10/18 14:16:09;;;;;;;8.27;7.30;;;;;;;;;;5045764;28;20215;-67
2023/10/18 14:18:35;;;;;;;8.73;8.00;;;;;;;;;;5045172;28;20210;-68
2023/10/18 14:21:04;;;;;;;9.30;8.50;;;;;;;;;;5042305;28;20230;-63
2023/10/18 14:23:31;;;;;;;8.30;7.65;;;;;;;;;;5044718;28;20206;-66
2023/10/18 14:26:00;;;;;;;9.27;8.48;;;;;;;;;;5042179;28;20207;-69
2023/10/18 14:28:28;;;;;;;9.50;8.52;;;;;;;;;;5042585;28;20214;-67
2023/10/18 14:30:57;;;;;;;8.38;7.75;;;;;;;;;;5042144;28;20306;-68
2023/10/18 14:33:26;;;;;;;8.95;8.18;;;;;;;;;;5041787;28;20619;-65
2023/10/18 14:35:52;;;;;;;9.45;8.55;;;;;;;;;;5043018;28;20648;-66
2023/10/18 14:38:19;;;;;;;8.65;7.82;;;;;;;;;;5044684;28;20199;-66
2023/10/18 14:40:46;;;;;;;9.35;8.45;;;;;;;;;;5043113;28;20281;-66
2023/10/18 14:43:14;;;;;;;9.73;8.00;;;;;;;;;;5044958;28;20257;-69
2023/10/18 14:45:41;;;;;;;8.45;7.75;;;;;;;;;;5041913;28;20253;-67
2023/10/18 14:48:08;;;;;;;8.35;7.65;;;;;;;;;;5042600;28;20214;-66
2023/10/18 14:50:35;;;;;;;8.50;7.80;;;;;;;;;;5044878;28;20301;-67
2023/10/18 14:53:01;;;;;;;8.65;7.95;;;;;;;;;;5042318;28;20203;-68
2023/10/18 14:55:29;;;;;;;9.88;8.68;;;;;;;;;;5042265;28;20227;-63
2023/10/18 14:57:55;;;;;;;8.02;7.43;;;;;;;;;;5038809;28;20577;-67
2023/10/18 15:00:23;;;;;;;8.15;7.32;;;;;;;;;;5041607;28;20231;-66
2023/10/18 15:02:50;;;;;;;8.55;7.70;;;;;;;;;;5041314;28;20210;-66